Time;durP1;ratioP1;P1;durP2;ratioP2;P2;SDS_P1;SDS_P2;PMS_P1;PMS_P2;Temp;Humidity;BMP_temperature;BMP_pressure;BME280_temperature;BME280_humidity;BME280_pressure;Samples;Min_cycle;Max_cycle;Signal;HPM_P1;HPM_P2
2022/12/17 13:07:18;;;;;;;12.75;8.55;;;;;;;;;;5034290;28;20044;-62
2022/12/17 13:09:50;;;;;;;13.35;9.13;;;;;;;;;;5034358;28;20076;-61
2022/12/17 13:12:28;;;;;;;12.15;8.75;;;;;;;;;;5034077;28;20041;-61
2022/12/17 13:15:17;;;;;;;12.30;8.85;;;;;;;;;;5034182;28;20052;-61
2022/12/17 13:18:13;;;;;;;13.25;9.00;;;;;;;;;;5034199;28;20040;-62
2022/12/17 13:20:39;;;;;;;13.75;9.07;;;;;;;;;;5034273;28;20465;-62
2022/12/17 13:23:15;;;;;;;12.93;9.15;;;;;;;;;;5034083;28;20029;-62
2022/12/17 13:25:40;;;;;;;12.98;9.00;;;;;;;;;;5034207;28;20095;-61
2022/12/17 13:28:32;;;;;;;13.82;8.95;;;;;;;;;;5034138;28;20469;-61
2022/12/17 13:31:04;;;;;;;11.35;8.55;;;;;;;;;;5031832;28;20069;-61
2022/12/17 13:34:01;;;;;;;12.52;8.82;;;;;;;;;;5034074;28;20080;-61
2022/12/17 13:36:37;;;;;;;12.75;8.82;;;;;;;;;;5033762;28;20507;-61
2022/12/17 13:39:23;;;;;;;13.30;9.05;;;;;;;;;;5034012;28;20030;-61
2022/12/17 13:41:56;;;;;;;12.80;8.88;;;;;;;;;;5033913;28;20022;-62
2022/12/17 13:44:33;;;;;;;16.48;10.00;;;;;;;;;;5033408;28;20113;-63
2022/12/17 13:46:59;;;;;;;14.75;9.48;;;;;;;;;;5044295;28;20448;-61
2022/12/17 13:49:28;;;;;;;11.50;8.95;;;;;;;;;;5044089;28;20058;-62
2022/12/17 13:52:27;;;;;;;11.35;8.48;;;;;;;;;;5042475;28;20024;-62
2022/12/17 13:55:04;;;;;;;12.82;8.90;;;;;;;;;;5013724;28;20064;-61
2022/12/17 13:57:30;;;;;;;12.93;8.73;;;;;;;;;;5043848;28;20206;-61
2022/12/17 14:00:01;;;;;;;14.35;9.38;;;;;;;;;;5043714;28;20640;-61
2022/12/17 14:02:32;;;;;;;16.23;9.90;;;;;;;;;;5045515;28;20025;-61
2022/12/17 14:05:00;;;;;;;13.15;9.20;;;;;;;;;;5049908;28;20385;-60
2022/12/17 14:07:29;;;;;;;12.20;8.70;;;;;;;;;;5033686;28;20551;-61
2022/12/17 14:09:56;;;;;;;10.88;8.35;;;;;;;;;;5033049;28;20079;-61
2022/12/17 14:12:24;;;;;;;13.40;8.80;;;;;;;;;;5033393;28;20029;-60
2022/12/17 14:15:02;;;;;;;17.67;9.13;;;;;;;;;;5033228;28;20026;-62
2022/12/17 14:17:36;;;;;;;11.85;8.85;;;;;;;;;;5033308;28;20034;-61
2022/12/17 14:20:05;;;;;;;13.20;9.15;;;;;;;;;;5025987;28;20021;-62
2022/12/17 14:22:40;;;;;;;14.23;9.27;;;;;;;;;;5030358;28;20038;-62
2022/12/17 14:25:19;;;;;;;12.88;9.38;;;;;;;;;;5031351;28;20271;-62
2022/12/17 14:28:03;;;;;;;12.38;8.63;;;;;;;;;;5031208;28;20041;-62
2022/12/17 14:30:35;;;;;;;12.57;8.52;;;;;;;;;;5031324;28;20686;-62
2022/12/17 14:33:01;;;;;;;12.65;8.63;;;;;;;;;;5031233;28;20037;-61
2022/12/17 14:35:33;;;;;;;12.85;8.30;;;;;;;;;;5031545;28;20025;-61
2022/12/17 14:37:59;;;;;;;13.65;9.70;;;;;;;;;;5031382;28;20030;-62
2022/12/17 14:40:25;;;;;;;14.63;9.05;;;;;;;;;;5030826;28;20044;-61
2022/12/17 14:42:58;;;;;;;13.63;8.55;;;;;;;;;;5033185;28;20033;-62
2022/12/17 14:45:26;;;;;;;13.20;9.25;;;;;;;;;;5043437;28;20108;-61
2022/12/17 14:47:59;;;;;;;11.98;8.38;;;;;;;;;;5041889;28;20029;-62
2022/12/17 14:50:29;;;;;;;12.45;8.55;;;;;;;;;;5040992;28;20036;-62
2022/12/17 14:52:57;;;;;;;12.75;9.05;;;;;;;;;;5042294;28;20527;-62
2022/12/17 14:55:28;;;;;;;12.10;8.65;;;;;;;;;;5041113;28;20045;-62
2022/12/17 14:58:15;;;;;;;12.18;8.65;;;;;;;;;;5042343;28;20061;-62
2022/12/17 15:00:47;;;;;;;13.93;9.45;;;;;;;;;;5042714;28;20028;-61
2022/12/17 15:03:20;;;;;;;11.10;8.98;;;;;;;;;;5043224;28;20028;-62
2022/12/17 15:05:54;;;;;;;10.95;8.15;;;;;;;;;;5042687;28;20111;-61
2022/12/17 15:08:20;;;;;;;13.13;8.60;;;;;;;;;;5043995;28;20029;-61
2022/12/17 15:10:45;;;;;;;12.10;8.45;;;;;;;;;;5041591;28;20068;-62
2022/12/17 15:13:11;;;;;;;14.40;8.85;;;;;;;;;;5041156;28;20442;-62
2022/12/17 15:15:37;;;;;;;13.35;9.40;;;;;;;;;;5041489;28;20025;-62
2022/12/17 15:18:03;;;;;;;14.00;9.15;;;;;;;;;;5039375;28;20505;-61
2022/12/17 15:20:30;;;;;;;11.63;8.48;;;;;;;;;;5042471;28;20032;-61
2022/12/17 15:22:55;;;;;;;11.57;8.35;;;;;;;;;;5041823;28;20037;-61
2022/12/17 15:25:21;;;;;;;13.20;9.20;;;;;;;;;;5042041;28;20025;-61
2022/12/17 15:27:46;;;;;;;13.30;8.60;;;;;;;;;;5041212;28;20115;-61
2022/12/17 15:30:16;;;;;;;12.80;8.57;;;;;;;;;;5039681;28;20025;-62
2022/12/17 15:32:43;;;;;;;12.32;8.38;;;;;;;;;;5030846;28;20108;-61
2022/12/17 15:35:10;;;;;;;11.73;8.35;;;;;;;;;;5032365;28;20496;-61
2022/12/17 15:37:35;;;;;;;11.85;8.60;;;;;;;;;;5034621;28;20029;-61
2022/12/17 15:40:02;;;;;;;10.38;7.88;;;;;;;;;;5034191;28;20428;-61
2022/12/17 15:45:13;;;;;;;12.30;8.50;;;;;;;;;;5034520;28;20063;-63
2022/12/17 15:47:39;;;;;;;13.88;8.48;;;;;;;;;;5034196;28;20026;-60
2022/12/17 15:50:05;;;;;;;13.00;8.80;;;;;;;;;;5034301;28;20087;-60
2022/12/17 15:52:31;;;;;;;18.50;9.07;;;;;;;;;;5034001;28;20108;-63
2022/12/17 15:54:57;;;;;;;13.30;8.60;;;;;;;;;;5034392;28;20463;-64
2022/12/17 15:57:22;;;;;;;13.32;8.90;;;;;;;;;;5033863;28;20045;-64
2022/12/17 15:59:50;;;;;;;11.40;8.25;;;;;;;;;;5047524;28;20095;-64
2022/12/17 16:02:15;;;;;;;11.15;8.10;;;;;;;;;;5054208;28;20485;-63
2022/12/17 16:04:41;;;;;;;11.35;8.60;;;;;;;;;;5053834;28;20024;-63
2022/12/17 16:07:07;;;;;;;15.95;8.63;;;;;;;;;;5053596;28;20032;-64
2022/12/17 16:09:32;;;;;;;11.25;8.07;;;;;;;;;;5053618;28;20098;-64
2022/12/17 16:11:58;;;;;;;11.80;8.15;;;;;;;;;;5053879;28;20477;-63
2022/12/17 16:14:24;;;;;;;13.93;8.77;;;;;;;;;;5053485;28;20078;-62
2022/12/17 16:16:50;;;;;;;11.45;7.97;;;;;;;;;;5053690;28;20059;-62
2022/12/17 16:19:16;;;;;;;12.23;8.27;;;;;;;;;;5053426;28;20044;-62
2022/12/17 16:21:42;;;;;;;12.50;8.40;;;;;;;;;;5043249;28;20068;-64
2022/12/17 16:24:09;;;;;;;12.93;8.48;;;;;;;;;;5053657;28;20110;-61
2022/12/17 16:26:35;;;;;;;11.50;8.35;;;;;;;;;;5053371;28;20516;-63
2022/12/17 16:29:01;;;;;;;11.85;8.57;;;;;;;;;;5053515;28;20055;-62
2022/12/17 16:31:27;;;;;;;12.75;8.93;;;;;;;;;;5053137;28;20471;-62
2022/12/17 16:33:52;;;;;;;13.95;9.95;;;;;;;;;;5049976;28;20144;-63
2022/12/17 16:36:21;;;;;;;16.13;10.15;;;;;;;;;;5053453;28;20119;-63
2022/12/17 16:38:49;;;;;;;17.20;9.57;;;;;;;;;;5053108;28;20025;-62
2022/12/17 16:41:16;;;;;;;15.55;9.93;;;;;;;;;;5052988;28;20033;-61
2022/12/17 16:43:42;;;;;;;16.25;10.07;;;;;;;;;;5053387;28;20049;-63
2022/12/17 16:46:31;;;;;;;14.52;10.00;;;;;;;;;;5052562;28;20033;-62
2022/12/17 16:49:02;;;;;;;17.80;10.57;;;;;;;;;;5052947;28;20493;-62
2022/12/17 16:51:28;;;;;;;15.07;9.60;;;;;;;;;;5052758;28;20029;-63
2022/12/17 16:53:54;;;;;;;16.30;9.98;;;;;;;;;;5053055;28;20029;-61
2022/12/17 16:56:23;;;;;;;17.23;10.07;;;;;;;;;;5052606;28;20619;-64
2022/12/17 16:58:49;;;;;;;14.27;9.82;;;;;;;;;;5052803;28;20028;-62
2022/12/17 17:01:20;;;;;;;15.20;9.98;;;;;;;;;;5052850;28;20086;-63
2022/12/17 17:03:46;;;;;;;15.57;9.75;;;;;;;;;;5053025;28;20033;-63
2022/12/17 17:06:11;;;;;;;13.25;9.02;;;;;;;;;;5052886;28;20472;-63
2022/12/17 17:08:38;;;;;;;15.13;9.45;;;;;;;;;;5052717;28;20029;-63
2022/12/17 17:11:11;;;;;;;17.52;9.65;;;;;;;;;;5044745;28;20056;-62
2022/12/17 17:13:38;;;;;;;13.48;9.25;;;;;;;;;;5038165;28;20124;-62
2022/12/17 17:16:05;;;;;;;18.00;10.43;;;;;;;;;;5033753;28;20021;-64
2022/12/17 17:18:32;;;;;;;16.27;9.88;;;;;;;;;;5032676;28;20031;-61
2022/12/17 17:21:19;;;;;;;18.85;9.98;;;;;;;;;;5031128;28;20030;-62
2022/12/17 17:23:46;;;;;;;15.82;9.57;;;;;;;;;;5032415;28;20022;-63
2022/12/17 17:26:13;;;;;;;16.98;10.45;;;;;;;;;;5032511;28;20381;-62
2022/12/17 17:28:39;;;;;;;15.13;9.77;;;;;;;;;;5032280;28;20021;-61
2022/12/17 17:31:09;;;;;;;12.88;8.85;;;;;;;;;;5032030;28;20120;-62
2022/12/17 17:33:38;;;;;;;15.30;9.50;;;;;;;;;;5032241;28;20033;-62
2022/12/17 17:36:09;;;;;;;18.20;10.85;;;;;;;;;;5032086;28;20030;-64
2022/12/17 17:38:36;;;;;;;15.02;9.88;;;;;;;;;;5034557;28;20033;-61
2022/12/17 17:41:03;;;;;;;14.90;10.65;;;;;;;;;;5039762;28;20025;-61
2022/12/17 17:43:29;;;;;;;15.32;9.60;;;;;;;;;;5032427;28;20434;-62
2022/12/17 17:45:55;;;;;;;18.02;9.45;;;;;;;;;;5031948;28;20036;-61
2022/12/17 17:48:21;;;;;;;18.35;10.35;;;;;;;;;;5032210;28;20029;-61
2022/12/17 17:50:57;;;;;;;15.85;9.48;;;;;;;;;;5031699;28;20036;-63
2022/12/17 17:53:23;;;;;;;18.60;9.68;;;;;;;;;;5032135;28;20030;-62
2022/12/17 17:55:50;;;;;;;19.10;10.18;;;;;;;;;;5031660;28;20524;-61
2022/12/17 17:58:16;;;;;;;16.00;9.10;;;;;;;;;;5031066;28;20045;-62
2022/12/17 18:00:41;;;;;;;16.05;10.05;;;;;;;;;;5031481;28;20032;-63
2022/12/17 18:03:08;;;;;;;14.63;9.43;;;;;;;;;;5031996;28;20037;-63
2022/12/17 18:05:42;;;;;;;13.45;9.75;;;;;;;;;;5032012;28;20036;-62
2022/12/17 18:08:08;;;;;;;14.00;9.18;;;;;;;;;;5031738;28;20060;-63
2022/12/17 18:10:34;;;;;;;16.00;9.68;;;;;;;;;;5031515;28;20497;-63
2022/12/17 18:15:43;;;;;;;16.50;9.18;;;;;;;;;;5031761;28;20033;-61
2022/12/17 18:18:09;;;;;;;17.23;9.57;;;;;;;;;;5031333;28;20021;-62
2022/12/17 18:20:36;;;;;;;14.27;9.60;;;;;;;;;;5031149;28;20039;-62
2022/12/17 18:23:07;;;;;;;17.75;10.27;;;;;;;;;;5031556;28;20021;-62
2022/12/17 18:25:34;;;;;;;16.75;9.95;;;;;;;;;;5031214;28;20075;-62
2022/12/17 18:27:59;;;;;;;13.77;9.23;;;;;;;;;;5031217;28;20044;-63
2022/12/17 18:30:25;;;;;;;16.25;9.75;;;;;;;;;;5029677;28;20030;-63
2022/12/17 18:32:51;;;;;;;13.85;9.35;;;;;;;;;;5031831;28;20409;-62
2022/12/17 18:35:17;;;;;;;12.68;8.77;;;;;;;;;;5042370;28;20029;-62
2022/12/17 18:37:42;;;;;;;14.65;9.18;;;;;;;;;;5041489;28;20491;-62
2022/12/17 18:40:09;;;;;;;14.25;9.43;;;;;;;;;;5043560;28;20028;-62
2022/12/17 18:45:18;;;;;;;15.05;8.95;;;;;;;;;;5042339;28;20133;-64
2022/12/17 18:47:44;;;;;;;16.02;9.38;;;;;;;;;;5040702;28;20159;-61
2022/12/17 18:50:11;;;;;;;14.23;8.85;;;;;;;;;;5040678;28;20056;-63
2022/12/17 18:52:37;;;;;;;13.70;9.05;;;;;;;;;;5039302;28;20029;-62
2022/12/17 18:55:03;;;;;;;13.27;9.00;;;;;;;;;;5041218;28;20867;-62
2022/12/17 18:57:29;;;;;;;15.52;9.27;;;;;;;;;;5041439;28;20131;-64
2022/12/17 18:59:55;;;;;;;16.33;10.48;;;;;;;;;;5051016;28;20334;-65
2022/12/17 19:02:21;;;;;;;16.33;9.55;;;;;;;;;;5044629;28;20052;-61
2022/12/17 19:04:47;;;;;;;13.88;8.88;;;;;;;;;;5038507;28;20473;-61
2022/12/17 19:07:12;;;;;;;19.30;9.73;;;;;;;;;;5041032;28;20049;-62
2022/12/17 19:09:39;;;;;;;13.60;8.90;;;;;;;;;;5035458;28;20041;-62
2022/12/17 19:12:07;;;;;;;15.82;9.35;;;;;;;;;;5039712;28;20029;-64
2022/12/17 19:14:33;;;;;;;12.00;8.90;;;;;;;;;;5047454;28;20040;-62
2022/12/17 19:16:59;;;;;;;14.75;8.75;;;;;;;;;;5060644;28;20028;-62
2022/12/17 19:19:25;;;;;;;17.00;9.68;;;;;;;;;;5037134;28;20026;-63
2022/12/17 19:21:53;;;;;;;13.52;8.75;;;;;;;;;;5037124;28;20108;-63
2022/12/17 19:24:20;;;;;;;13.82;8.82;;;;;;;;;;5037503;28;20025;-64
2022/12/17 19:26:46;;;;;;;12.68;9.10;;;;;;;;;;5037094;28;20091;-64
2022/12/17 19:29:13;;;;;;;14.20;8.95;;;;;;;;;;5037398;28;20037;-63
2022/12/17 19:31:39;;;;;;;18.73;8.95;;;;;;;;;;5035853;28;20079;-63
2022/12/17 19:34:09;;;;;;;15.00;8.80;;;;;;;;;;5037086;28;20029;-64
2022/12/17 19:36:39;;;;;;;14.18;8.85;;;;;;;;;;5037260;28;20033;-65
2022/12/17 19:39:07;;;;;;;17.38;9.10;;;;;;;;;;5036871;28;20029;-65
2022/12/17 19:41:33;;;;;;;16.73;9.63;;;;;;;;;;5042101;28;20033;-65
2022/12/17 19:44:02;;;;;;;11.48;8.45;;;;;;;;;;5047586;28;20039;-65
2022/12/17 19:46:29;;;;;;;13.65;9.23;;;;;;;;;;5046511;28;20035;-65
2022/12/17 19:48:55;;;;;;;17.45;9.18;;;;;;;;;;5041174;28;20056;-63
2022/12/17 19:51:22;;;;;;;17.45;8.70;;;;;;;;;;5046400;28;20052;-65
2022/12/17 19:53:48;;;;;;;14.15;8.98;;;;;;;;;;5046953;28;20094;-63
2022/12/17 19:56:24;;;;;;;14.10;9.27;;;;;;;;;;5043921;28;20049;-64
2022/12/17 19:58:53;;;;;;;13.48;8.48;;;;;;;;;;5036006;28;20060;-63
2022/12/17 20:01:21;;;;;;;15.25;9.02;;;;;;;;;;5035562;28;20032;-65
2022/12/17 20:03:47;;;;;;;15.55;8.43;;;;;;;;;;5036132;28;20029;-64
2022/12/17 20:06:15;;;;;;;13.77;9.23;;;;;;;;;;5036013;28;20029;-63
2022/12/17 20:08:41;;;;;;;15.75;8.57;;;;;;;;;;5036016;28;20668;-63
2022/12/17 20:14:14;;;;;;;14.55;8.93;;;;;;;;;;5036846;28;20092;-62
2022/12/17 20:16:41;;;;;;;15.90;8.90;;;;;;;;;;5042277;28;20116;-64
2022/12/17 20:19:12;;;;;;;16.75;9.52;;;;;;;;;;5044301;28;20035;-60
2022/12/17 20:21:37;;;;;;;14.27;9.13;;;;;;;;;;5039860;28;20029;-63
2022/12/17 20:24:03;;;;;;;15.30;9.15;;;;;;;;;;5043539;28;20127;-63
2022/12/17 20:26:29;;;;;;;14.02;8.70;;;;;;;;;;5041360;28;20454;-65
2022/12/17 20:28:56;;;;;;;12.07;8.48;;;;;;;;;;5042361;28;20427;-65
2022/12/17 20:31:22;;;;;;;13.38;8.63;;;;;;;;;;5042931;28;20025;-61
2022/12/17 20:33:47;;;;;;;20.10;9.65;;;;;;;;;;5044049;28;20029;-63
2022/12/17 20:36:16;;;;;;;12.52;8.60;;;;;;;;;;5052563;28;20036;-65
2022/12/17 20:38:42;;;;;;;12.57;8.65;;;;;;;;;;5053233;28;20021;-64
2022/12/17 20:41:28;;;;;;;16.88;9.32;;;;;;;;;;5053046;28;20029;-64
2022/12/17 20:43:57;;;;;;;13.82;8.90;;;;;;;;;;5053151;28;20556;-63
2022/12/17 20:46:24;;;;;;;13.98;8.13;;;;;;;;;;5053008;28;20033;-64
2022/12/17 20:48:50;;;;;;;13.65;8.18;;;;;;;;;;5052908;28;20025;-63
2022/12/17 20:51:23;;;;;;;14.18;8.63;;;;;;;;;;5052554;28;20037;-63
2022/12/17 20:53:49;;;;;;;52.95;12.27;;;;;;;;;;5052988;28;20021;-64
2022/12/17 20:56:18;;;;;;;75.53;13.35;;;;;;;;;;5052775;28;20049;-61
2022/12/17 20:58:44;;;;;;;34.33;11.77;;;;;;;;;;5052915;28;20035;-61
2022/12/17 21:01:21;;;;;;;27.42;12.43;;;;;;;;;;5052797;28;20396;-61
2022/12/17 21:03:49;;;;;;;25.20;10.82;;;;;;;;;;5043361;28;20033;-61
2022/12/17 21:06:20;;;;;;;22.58;9.90;;;;;;;;;;5032735;28;20013;-61
2022/12/17 21:08:47;;;;;;;41.13;9.85;;;;;;;;;;5033124;28;20413;-61
2022/12/17 21:11:14;;;;;;;29.85;10.30;;;;;;;;;;5032595;28;20057;-63
2022/12/17 21:13:47;;;;;;;38.97;14.48;;;;;;;;;;5032850;28;20036;-61
2022/12/17 21:16:17;;;;;;;29.70;12.02;;;;;;;;;;5032981;28;20669;-64
2022/12/17 21:18:43;;;;;;;30.55;12.05;;;;;;;;;;5032613;28;20477;-64
2022/12/17 21:21:12;;;;;;;26.80;11.07;;;;;;;;;;5032641;28;20083;-64
2022/12/17 21:23:39;;;;;;;26.10;10.93;;;;;;;;;;5032864;28;20108;-64
2022/12/17 21:26:26;;;;;;;23.42;10.30;;;;;;;;;;5034234;28;20033;-64
2022/12/17 21:28:57;;;;;;;40.95;10.73;;;;;;;;;;5033802;28;20040;-64
2022/12/17 21:31:29;;;;;;;22.08;10.05;;;;;;;;;;5033417;28;20067;-65
2022/12/17 21:33:58;;;;;;;30.45;10.85;;;;;;;;;;5033185;28;20022;-65
2022/12/17 21:36:25;;;;;;;33.65;11.05;;;;;;;;;;5033845;28;20021;-64
2022/12/17 21:38:52;;;;;;;26.92;9.82;;;;;;;;;;5033681;28;20026;-64
2022/12/17 21:41:23;;;;;;;27.33;10.40;;;;;;;;;;5033574;28;20025;-64
2022/12/17 21:43:53;;;;;;;24.05;9.93;;;;;;;;;;5034011;28;20021;-64
2022/12/17 21:46:19;;;;;;;;;;;;;;;;;;5034042;28;20065;-64
2022/12/17 21:48:44;;;;;;;26.55;9.23;;;;;;;;;;5033473;28;20403;-64
2022/12/17 21:51:12;;;;;;;25.35;9.88;;;;;;;;;;5033498;28;20022;-65
2022/12/17 21:53:42;;;;;;;24.88;9.63;;;;;;;;;;5033624;28;20017;-64
2022/12/17 21:56:12;;;;;;;;;;;;;;;;;;5033711;28;20164;-64
2022/12/17 21:58:38;;;;;;;22.88;9.70;;;;;;;;;;5033368;28;19920;-65
2022/12/17 22:01:23;;;;;;;25.17;10.30;;;;;;;;;;5033277;28;20033;-65
2022/12/17 22:03:52;;;;;;;23.42;9.38;;;;;;;;;;5048915;28;20036;-65
2022/12/17 22:06:20;;;;;;;26.05;10.02;;;;;;;;;;5052218;28;20099;-64
2022/12/17 22:08:46;;;;;;;28.38;9.55;;;;;;;;;;5052147;28;20086;-65
2022/12/17 22:11:18;;;;;;;19.85;9.98;;;;;;;;;;5052141;28;20025;-65
2022/12/17 22:14:05;;;;;;;19.88;10.05;;;;;;;;;;5053027;28;20027;-65
2022/12/17 22:16:45;;;;;;;25.55;11.50;;;;;;;;;;5052949;28;20033;-65
2022/12/17 22:19:22;;;;;;;22.77;9.85;;;;;;;;;;5053334;28;20033;-65
2022/12/17 22:21:50;;;;;;;24.35;10.25;;;;;;;;;;5052570;28;20029;-64
2022/12/17 22:24:21;;;;;;;22.85;9.35;;;;;;;;;;5052259;28;20029;-64
2022/12/17 22:26:47;;;;;;;21.95;9.40;;;;;;;;;;5052259;28;20473;-64
2022/12/17 22:32:58;;;;;;;21.00;10.20;;;;;;;;;;5052831;28;20020;-64
2022/12/17 22:34:45;;;;;;;18.17;9.10;;;;;;;;;;5042513;28;20083;-65
2022/12/17 22:37:10;;;;;;;23.02;9.98;;;;;;;;;;5041725;28;20032;-62
2022/12/17 22:39:36;;;;;;;24.77;9.95;;;;;;;;;;5041650;28;20377;-64
2022/12/17 22:44:46;;;;;;;21.40;9.57;;;;;;;;;;5042569;28;20029;-63
2022/12/17 22:47:12;;;;;;;29.63;10.10;;;;;;;;;;5041488;28;20044;-65
2022/12/17 22:49:38;;;;;;;19.08;9.48;;;;;;;;;;5041721;28;20018;-65
2022/12/17 22:52:03;;;;;;;23.95;9.52;;;;;;;;;;5041491;28;20083;-65
2022/12/17 22:54:29;;;;;;;21.13;9.98;;;;;;;;;;5041224;28;20079;-64
2022/12/17 22:56:54;;;;;;;22.65;9.40;;;;;;;;;;5042790;28;20045;-63
2022/12/17 22:59:20;;;;;;;20.13;9.25;;;;;;;;;;5041488;28;20037;-64
2022/12/17 23:01:46;;;;;;;19.73;9.32;;;;;;;;;;5039223;28;20032;-63
2022/12/17 23:04:14;;;;;;;22.50;9.68;;;;;;;;;;5042636;28;20029;-63
2022/12/17 23:06:40;;;;;;;23.05;9.93;;;;;;;;;;5041667;28;20053;-64
2022/12/17 23:09:06;;;;;;;20.33;10.05;;;;;;;;;;5041451;28;20036;-65
2022/12/17 23:11:31;;;;;;;18.60;9.95;;;;;;;;;;5046617;28;20017;-65
2022/12/17 23:13:57;;;;;;;21.65;9.30;;;;;;;;;;5043406;28;20065;-68
2022/12/17 23:16:23;;;;;;;21.42;9.68;;;;;;;;;;5045318;28;20032;-65
2022/12/17 23:18:50;;;;;;;26.00;9.88;;;;;;;;;;5042081;28;20346;-64
2022/12/17 23:21:19;;;;;;;21.80;9.68;;;;;;;;;;5044654;28;20029;-65
2022/12/17 23:23:45;;;;;;;22.08;8.82;;;;;;;;;;5041737;28;20076;-64
2022/12/17 23:26:12;;;;;;;20.52;8.73;;;;;;;;;;5044482;28;20060;-65
2022/12/17 23:28:38;;;;;;;20.27;8.95;;;;;;;;;;5042060;28;20025;-65
2022/12/17 23:31:08;;;;;;;19.55;9.20;;;;;;;;;;5042552;28;20041;-65
2022/12/17 23:33:34;;;;;;;16.88;8.95;;;;;;;;;;5041794;28;20080;-66
2022/12/17 23:36:12;;;;;;;23.92;9.23;;;;;;;;;;5046514;28;20130;-65
2022/12/17 23:38:38;;;;;;;21.85;9.75;;;;;;;;;;5048806;28;20365;-65
2022/12/17 23:41:06;;;;;;;18.55;8.85;;;;;;;;;;5049692;28;20032;-65
2022/12/17 23:43:33;;;;;;;23.38;9.68;;;;;;;;;;5048762;28;20401;-65
2022/12/17 23:45:58;;;;;;;19.27;8.70;;;;;;;;;;5050087;28;20076;-65
2022/12/17 23:48:28;;;;;;;23.17;9.02;;;;;;;;;;5050944;28;20558;-65
2022/12/17 23:50:53;;;;;;;17.67;8.95;;;;;;;;;;5051692;28;20027;-65
2022/12/17 23:53:18;;;;;;;16.83;9.20;;;;;;;;;;5050836;28;20033;-65
2022/12/17 23:55:44;;;;;;;17.83;8.27;;;;;;;;;;5053014;28;20055;-65
2022/12/17 23:58:10;;;;;;;14.10;8.82;;;;;;;;;;5055942;28;20024;-65
